sensor_id;sensor_type;location;lat;lon;timestamp;pressure;altitude;pressure_sealevel;temperature;humidity
76728;BME280;65652;53.132;18.026;2023-04-03T00:01:21;102294.56;;;0.93;65.53
76728;BME280;65652;53.132;18.026;2023-04-03T00:03:47;102296.40;;;0.88;65.79
76728;BME280;65652;53.132;18.026;2023-04-03T00:06:13;102296.17;;;0.83;65.72
76728;BME280;65652;53.132;18.026;2023-04-03T00:08:40;102293.33;;;0.78;65.89
76728;BME280;65652;53.132;18.026;2023-04-03T00:11:07;102291.52;;;0.73;65.92
76728;BME280;65652;53.132;18.026;2023-04-03T00:13:34;102294.56;;;0.69;65.91
76728;BME280;65652;53.132;18.026;2023-04-03T00:16:00;102293.61;;;0.64;66.11
76728;BME280;65652;53.132;18.026;2023-04-03T00:18:29;102290.73;;;0.61;66.26
76728;BME280;65652;53.132;18.026;2023-04-03T00:20:55;102290.45;;;0.58;66.28
76728;BME280;65652;53.132;18.026;2023-04-03T00:23:21;102286.33;;;0.55;66.22
76728;BME280;65652;53.132;18.026;2023-04-03T00:25:50;102287.58;;;0.53;66.36
76728;BME280;65652;53.132;18.026;2023-04-03T00:28:16;102289.55;;;0.51;66.38
76728;BME280;65652;53.132;18.026;2023-04-03T00:30:42;102286.60;;;0.50;66.38
76728;BME280;65652;53.132;18.026;2023-04-03T00:33:12;102290.27;;;0.50;66.35
76728;BME280;65652;53.132;18.026;2023-04-03T00:35:38;102286.50;;;0.47;66.53
76728;BME280;65652;53.132;18.026;2023-04-03T00:38:05;102288.13;;;0.44;66.57
76728;BME280;65652;53.132;18.026;2023-04-03T00:40:39;102288.85;;;0.42;66.46
76728;BME280;65652;53.132;18.026;2023-04-03T00:45:43;102287.67;;;0.40;66.64
76728;BME280;65652;53.132;18.026;2023-04-03T00:48:23;102291.52;;;0.39;66.63
76728;BME280;65652;53.132;18.026;2023-04-03T00:50:50;102291.90;;;0.38;66.55
76728;BME280;65652;53.132;18.026;2023-04-03T00:53:24;102291.05;;;0.36;66.60
76728;BME280;65652;53.132;18.026;2023-04-03T00:55:54;102295.45;;;0.34;66.87
76728;BME280;65652;53.132;18.026;2023-04-03T00:58:32;102294.97;;;0.31;67.06
76728;BME280;65652;53.132;18.026;2023-04-03T01:01:03;102292.08;;;0.29;67.04
76728;BME280;65652;53.132;18.026;2023-04-03T01:03:31;102290.86;;;0.29;67.07
76728;BME280;65652;53.132;18.026;2023-04-03T01:05:58;102294.31;;;0.29;66.99
76728;BME280;65652;53.132;18.026;2023-04-03T01:08:25;102287.90;;;0.29;66.90
76728;BME280;65652;53.132;18.026;2023-04-03T01:10:52;102291.70;;;0.30;67.12
76728;BME280;65652;53.132;18.026;2023-04-03T01:13:27;102288.95;;;0.28;66.89
76728;BME280;65652;53.132;18.026;2023-04-03T01:15:54;102295.25;;;0.26;67.16
76728;BME280;65652;53.132;18.026;2023-04-03T01:18:23;102295.08;;;0.26;67.36
76728;BME280;65652;53.132;18.026;2023-04-03T01:25:59;102301.06;;;0.22;67.27
76728;BME280;65652;53.132;18.026;2023-04-03T01:28:29;102302.61;;;0.23;67.42
76728;BME280;65652;53.132;18.026;2023-04-03T01:31:22;102301.42;;;0.21;67.70
76728;BME280;65652;53.132;18.026;2023-04-03T01:33:51;102304.92;;;0.20;67.40
76728;BME280;65652;53.132;18.026;2023-04-03T01:36:24;102305.96;;;0.20;67.62
76728;BME280;65652;53.132;18.026;2023-04-03T01:38:52;102306.83;;;0.20;67.58
76728;BME280;65652;53.132;18.026;2023-04-03T01:41:19;102307.69;;;0.20;67.64
76728;BME280;65652;53.132;18.026;2023-04-03T01:43:48;102312.92;;;0.19;67.82
76728;BME280;65652;53.132;18.026;2023-04-03T01:46:15;102313.11;;;0.18;67.84
76728;BME280;65652;53.132;18.026;2023-04-03T01:48:41;102312.61;;;0.17;67.99
76728;BME280;65652;53.132;18.026;2023-04-03T01:51:08;102315.77;;;0.16;67.95
76728;BME280;65652;53.132;18.026;2023-04-03T01:53:35;102313.70;;;0.15;68.09
76728;BME280;65652;53.132;18.026;2023-04-03T01:56:01;102313.91;;;0.13;68.16
76728;BME280;65652;53.132;18.026;2023-04-03T01:58:27;102315.48;;;0.12;68.31
76728;BME280;65652;53.132;18.026;2023-04-03T02:00:54;102318.45;;;0.11;68.39
76728;BME280;65652;53.132;18.026;2023-04-03T02:03:20;102314.81;;;0.11;68.16
76728;BME280;65652;53.132;18.026;2023-04-03T02:05:47;102315.50;;;0.11;68.19
76728;BME280;65652;53.132;18.026;2023-04-03T02:08:13;102315.52;;;0.10;68.33
76728;BME280;65652;53.132;18.026;2023-04-03T02:10:40;102317.46;;;0.08;68.52
76728;BME280;65652;53.132;18.026;2023-04-03T02:13:06;102316.79;;;0.07;68.34
76728;BME280;65652;53.132;18.026;2023-04-03T02:15:32;102319.58;;;0.07;68.36
76728;BME280;65652;53.132;18.026;2023-04-03T02:17:58;102318.02;;;0.06;68.47
76728;BME280;65652;53.132;18.026;2023-04-03T02:20:25;102321.18;;;0.04;68.46
76728;BME280;65652;53.132;18.026;2023-04-03T02:22:51;102318.41;;;0.04;68.58
76728;BME280;65652;53.132;18.026;2023-04-03T02:25:18;102321.70;;;0.05;68.69
76728;BME280;65652;53.132;18.026;2023-04-03T02:27:44;102319.26;;;0.05;68.58
76728;BME280;65652;53.132;18.026;2023-04-03T02:30:10;102319.97;;;0.04;68.69
76728;BME280;65652;53.132;18.026;2023-04-03T02:32:37;102322.42;;;0.03;68.71
76728;BME280;65652;53.132;18.026;2023-04-03T02:35:03;102324.00;;;0.02;68.77
76728;BME280;65652;53.132;18.026;2023-04-03T02:37:31;102325.73;;;0.03;68.85
76728;BME280;65652;53.132;18.026;2023-04-03T02:39:58;102327.99;;;0.02;68.88
76728;BME280;65652;53.132;18.026;2023-04-03T02:42:24;102332.17;;;0.02;68.78
76728;BME280;65652;53.132;18.026;2023-04-03T02:44:51;102332.85;;;0.02;68.84
76728;BME280;65652;53.132;18.026;2023-04-03T02:47:17;102331.45;;;0.02;68.91
76728;BME280;65652;53.132;18.026;2023-04-03T02:49:43;102335.63;;;0.03;68.97
76728;BME280;65652;53.132;18.026;2023-04-03T02:52:11;102338.79;;;0.01;69.06
76728;BME280;65652;53.132;18.026;2023-04-03T02:54:37;102340.91;;;-0.01;69.29
76728;BME280;65652;53.132;18.026;2023-04-03T02:57:05;102341.28;;;-0.03;69.13
76728;BME280;65652;53.132;18.026;2023-04-03T02:59:31;102342.49;;;-0.03;69.18
76728;BME280;65652;53.132;18.026;2023-04-03T03:01:57;102345.09;;;-0.02;69.04
76728;BME280;65652;53.132;18.026;2023-04-03T03:04:23;102346.65;;;-0.02;69.28
76728;BME280;65652;53.132;18.026;2023-04-03T03:06:50;102346.67;;;-0.03;69.30
76728;BME280;65652;53.132;18.026;2023-04-03T03:09:17;102348.58;;;-0.02;69.27
76728;BME280;65652;53.132;18.026;2023-04-03T03:11:43;102353.09;;;-0.03;69.18
76728;BME280;65652;53.132;18.026;2023-04-03T03:14:09;102352.77;;;-0.04;69.57
76728;BME280;65652;53.132;18.026;2023-04-03T03:16:36;102351.22;;;-0.06;69.36
76728;BME280;65652;53.132;18.026;2023-04-03T03:19:02;102353.68;;;-0.07;69.41
76728;BME280;65652;53.132;18.026;2023-04-03T03:21:28;102354.56;;;-0.07;69.48
76728;BME280;65652;53.132;18.026;2023-04-03T03:23:55;102356.84;;;-0.08;69.48
76728;BME280;65652;53.132;18.026;2023-04-03T03:26:21;102354.56;;;-0.08;69.57
76728;BME280;65652;53.132;18.026;2023-04-03T03:28:47;102352.66;;;-0.08;69.69
76728;BME280;65652;53.132;18.026;2023-04-03T03:31:13;102355.28;;;-0.10;69.59
76728;BME280;65652;53.132;18.026;2023-04-03T03:33:41;102353.73;;;-0.10;69.58
76728;BME280;65652;53.132;18.026;2023-04-03T03:36:07;102358.44;;;-0.11;69.62
76728;BME280;65652;53.132;18.026;2023-04-03T03:38:33;102358.79;;;-0.11;69.73
76728;BME280;65652;53.132;18.026;2023-04-03T03:40:59;102359.66;;;-0.12;69.85
76728;BME280;65652;53.132;18.026;2023-04-03T03:43:27;102360.02;;;-0.12;69.73
76728;BME280;65652;53.132;18.026;2023-04-03T03:45:54;102364.17;;;-0.12;69.75
76728;BME280;65652;53.132;18.026;2023-04-03T03:48:22;102364.20;;;-0.12;69.83
76728;BME280;65652;53.132;18.026;2023-04-03T03:50:49;102367.50;;;-0.14;69.78
76728;BME280;65652;53.132;18.026;2023-04-03T03:53:16;102371.33;;;-0.14;69.77
76728;BME280;65652;53.132;18.026;2023-04-03T03:55:43;102370.79;;;-0.12;69.79
76728;BME280;65652;53.132;18.026;2023-04-03T03:58:09;102373.21;;;-0.12;69.78
76728;BME280;65652;53.132;18.026;2023-04-03T04:00:36;102379.47;;;-0.12;69.65
76728;BME280;65652;53.132;18.026;2023-04-03T04:03:03;102376.16;;;-0.12;69.82
76728;BME280;65652;53.132;18.026;2023-04-03T04:05:30;102379.30;;;-0.12;69.77
76728;BME280;65652;53.132;18.026;2023-04-03T04:07:56;102384.84;;;-0.12;69.75
76728;BME280;65652;53.132;18.026;2023-04-03T04:10:23;102386.24;;;-0.12;69.64
76728;BME280;65652;53.132;18.026;2023-04-03T04:12:49;102386.23;;;-0.12;69.76
76728;BME280;65652;53.132;18.026;2023-04-03T04:15:18;102387.95;;;-0.10;69.77
76728;BME280;65652;53.132;18.026;2023-04-03T04:17:44;102390.20;;;-0.11;69.81
76728;BME280;65652;53.132;18.026;2023-04-03T04:20:11;102392.98;;;-0.12;69.67
76728;BME280;65652;53.132;18.026;2023-04-03T04:22:38;102397.15;;;-0.11;69.86
76728;BME280;65652;53.132;18.026;2023-04-03T04:25:05;102398.69;;;-0.10;69.68
76728;BME280;65652;53.132;18.026;2023-04-03T04:27:32;102400.08;;;-0.09;69.61
76728;BME280;65652;53.132;18.026;2023-04-03T04:29:58;102401.62;;;-0.08;69.63
76728;BME280;65652;53.132;18.026;2023-04-03T04:32:24;102401.61;;;-0.07;69.65
76728;BME280;65652;53.132;18.026;2023-04-03T04:34:50;102398.30;;;-0.07;69.58
76728;BME280;65652;53.132;18.026;2023-04-03T04:37:17;102397.94;;;-0.06;69.60
76728;BME280;65652;53.132;18.026;2023-04-03T04:39:43;102402.10;;;-0.06;69.68
76728;BME280;65652;53.132;18.026;2023-04-03T04:42:10;102403.52;;;-0.07;69.71
76728;BME280;65652;53.132;18.026;2023-04-03T04:44:39;102399.19;;;-0.07;69.78
76728;BME280;65652;53.132;18.026;2023-04-03T04:47:05;102400.91;;;-0.07;69.79
76728;BME280;65652;53.132;18.026;2023-04-03T04:49:32;102401.23;;;-0.06;69.76
76728;BME280;65652;53.132;18.026;2023-04-03T04:51:58;102404.15;;;-0.03;69.77
76728;BME280;65652;53.132;18.026;2023-04-03T04:54:27;102407.92;;;-0.01;69.73
76728;BME280;65652;53.132;18.026;2023-04-03T04:56:54;102410.48;;;0.02;69.57
76728;BME280;65652;53.132;18.026;2023-04-03T04:59:21;102415.61;;;0.06;69.49
76728;BME280;65652;53.132;18.026;2023-04-03T05:01:47;102421.28;;;0.10;69.51
76728;BME280;65652;53.132;18.026;2023-04-03T05:04:16;102423.13;;;0.15;69.29
76728;BME280;65652;53.132;18.026;2023-04-03T05:06:42;102420.42;;;0.20;69.26
76728;BME280;65652;53.132;18.026;2023-04-03T05:09:13;102421.77;;;0.23;69.24
76728;BME280;65652;53.132;18.026;2023-04-03T05:11:41;102427.25;;;0.27;69.21
76728;BME280;65652;53.132;18.026;2023-04-03T05:14:08;102428.41;;;0.31;68.98
76728;BME280;65652;53.132;18.026;2023-04-03T05:16:34;102428.33;;;0.36;68.86
76728;BME280;65652;53.132;18.026;2023-04-03T05:19:01;102432.44;;;0.38;69.00
76728;BME280;65652;53.132;18.026;2023-04-03T05:21:27;102429.63;;;0.41;68.83
76728;BME280;65652;53.132;18.026;2023-04-03T05:23:59;102428.71;;;0.43;68.76
76728;BME280;65652;53.132;18.026;2023-04-03T05:26:30;102432.85;;;0.45;68.70
76728;BME280;65652;53.132;18.026;2023-04-03T05:28:57;102430.40;;;0.46;68.60
76728;BME280;65652;53.132;18.026;2023-04-03T05:31:23;102430.33;;;0.49;68.50
76728;BME280;65652;53.132;18.026;2023-04-03T05:33:50;102432.65;;;0.56;68.28
76728;BME280;65652;53.132;18.026;2023-04-03T05:36:17;102430.65;;;0.61;68.23
76728;BME280;65652;53.132;18.026;2023-04-03T05:38:47;102432.43;;;0.67;68.13
76728;BME280;65652;53.132;18.026;2023-04-03T05:41:15;102433.67;;;0.75;68.04
76728;BME280;65652;53.132;18.026;2023-04-03T05:43:43;102435.07;;;0.84;67.81
76728;BME280;65652;53.132;18.026;2023-04-03T05:46:15;102435.23;;;0.94;67.67
76728;BME280;65652;53.132;18.026;2023-04-03T05:48:42;102433.13;;;1.03;67.36
76728;BME280;65652;53.132;18.026;2023-04-03T05:51:25;102429.81;;;1.12;67.19
76728;BME280;65652;53.132;18.026;2023-04-03T05:54:00;102430.27;;;1.23;66.97
76728;BME280;65652;53.132;18.026;2023-04-03T05:56:29;102428.33;;;1.33;66.67
76728;BME280;65652;53.132;18.026;2023-04-03T05:58:55;102428.77;;;1.45;66.67
76728;BME280;65652;53.132;18.026;2023-04-03T06:01:22;102430.02;;;1.59;66.46
76728;BME280;65652;53.132;18.026;2023-04-03T06:03:49;102434.61;;;1.79;66.29
76728;BME280;65652;53.132;18.026;2023-04-03T06:06:16;102436.49;;;1.95;65.75
76728;BME280;65652;53.132;18.026;2023-04-03T06:08:42;102434.52;;;2.18;65.33
76728;BME280;65652;53.132;18.026;2023-04-03T06:11:09;102430.37;;;2.38;64.95
76728;BME280;65652;53.132;18.026;2023-04-03T06:13:35;102433.72;;;2.63;64.91
76728;BME280;65652;53.132;18.026;2023-04-03T06:16:02;102433.13;;;2.85;63.86
76728;BME280;65652;53.132;18.026;2023-04-03T06:18:28;102437.48;;;2.98;63.22
76728;BME280;65652;53.132;18.026;2023-04-03T06:20:55;102439.14;;;3.07;62.93
76728;BME280;65652;53.132;18.026;2023-04-03T06:23:21;102439.24;;;3.21;62.79
76728;BME280;65652;53.132;18.026;2023-04-03T06:25:47;102438.64;;;3.42;61.69
76728;BME280;65652;53.132;18.026;2023-04-03T06:28:14;102443.45;;;3.61;61.22
76728;BME280;65652;53.132;18.026;2023-04-03T06:30:40;102445.13;;;3.81;60.71
76728;BME280;65652;53.132;18.026;2023-04-03T06:33:06;102448.39;;;3.94;59.08
76728;BME280;65652;53.132;18.026;2023-04-03T06:35:32;102450.95;;;4.07;59.67
76728;BME280;65652;53.132;18.026;2023-04-03T06:38:01;102450.89;;;4.24;59.35
76728;BME280;65652;53.132;18.026;2023-04-03T06:40:27;102455.64;;;4.44;58.51
76728;BME280;65652;53.132;18.026;2023-04-03T06:42:53;102451.17;;;4.62;58.17
76728;BME280;65652;53.132;18.026;2023-04-03T06:45:20;102449.42;;;4.72;56.96
76728;BME280;65652;53.132;18.026;2023-04-03T06:47:47;102453.52;;;4.70;56.10
76728;BME280;65652;53.132;18.026;2023-04-03T06:50:13;102457.11;;;4.82;56.70
76728;BME280;65652;53.132;18.026;2023-04-03T06:52:41;102463.02;;;4.94;56.81
76728;BME280;65652;53.132;18.026;2023-04-03T06:55:08;102462.40;;;5.05;55.87
76728;BME280;65652;53.132;18.026;2023-04-03T06:57:35;102462.84;;;4.94;56.10
76728;BME280;65652;53.132;18.026;2023-04-03T07:00:04;102467.83;;;4.76;56.34
76728;BME280;65652;53.132;18.026;2023-04-03T07:02:30;102473.29;;;4.65;56.30
76728;BME280;65652;53.132;18.026;2023-04-03T07:04:56;102478.55;;;4.55;55.97
76728;BME280;65652;53.132;18.026;2023-04-03T07:07:22;102477.34;;;4.44;55.76
76728;BME280;65652;53.132;18.026;2023-04-03T07:09:49;102477.86;;;4.54;56.19
76728;BME280;65652;53.132;18.026;2023-04-03T07:12:15;102481.67;;;4.61;55.93
76728;BME280;65652;53.132;18.026;2023-04-03T07:14:41;102485.17;;;4.55;55.14
76728;BME280;65652;53.132;18.026;2023-04-03T07:17:08;102488.71;;;4.49;55.20
76728;BME280;65652;53.132;18.026;2023-04-03T07:19:34;102487.44;;;4.45;55.74
76728;BME280;65652;53.132;18.026;2023-04-03T07:22:01;102488.89;;;4.43;55.84
76728;BME280;65652;53.132;18.026;2023-04-03T07:24:27;102493.97;;;4.48;55.34
76728;BME280;65652;53.132;18.026;2023-04-03T07:26:53;102493.64;;;4.58;55.36
76728;BME280;65652;53.132;18.026;2023-04-03T07:29:19;102495.95;;;4.58;54.24
76728;BME280;65652;53.132;18.026;2023-04-03T07:31:47;102499.44;;;4.52;54.94
76728;BME280;65652;53.132;18.026;2023-04-03T07:34:13;102500.75;;;4.50;55.41
76728;BME280;65652;53.132;18.026;2023-04-03T07:36:39;102501.02;;;4.57;55.10
76728;BME280;65652;53.132;18.026;2023-04-03T07:39:06;102502.77;;;4.52;54.96
76728;BME280;65652;53.132;18.026;2023-04-03T07:41:33;102504.08;;;4.44;54.65
76728;BME280;65652;53.132;18.026;2023-04-03T07:44:00;102503.36;;;4.29;54.06
76728;BME280;65652;53.132;18.026;2023-04-03T07:46:26;102508.27;;;4.13;54.27
76728;BME280;65652;53.132;18.026;2023-04-03T07:48:52;102511.64;;;3.99;54.98
76728;BME280;65652;53.132;18.026;2023-04-03T07:51:19;102510.09;;;3.93;55.09
76728;BME280;65652;53.132;18.026;2023-04-03T07:53:45;102513.86;;;3.95;54.06
76728;BME280;65652;53.132;18.026;2023-04-03T07:56:11;102514.00;;;3.97;53.89
76728;BME280;65652;53.132;18.026;2023-04-03T07:58:38;102514.46;;;3.93;52.53
76728;BME280;65652;53.132;18.026;2023-04-03T08:01:04;102511.66;;;3.93;52.19
76728;BME280;65652;53.132;18.026;2023-04-03T08:03:30;102511.80;;;3.89;50.47
76728;BME280;65652;53.132;18.026;2023-04-03T08:06:02;102509.31;;;3.85;50.92
76728;BME280;65652;53.132;18.026;2023-04-03T08:08:29;102509.89;;;3.94;50.86
76728;BME280;65652;53.132;18.026;2023-04-03T08:10:57;102507.73;;;3.91;50.72
76728;BME280;65652;53.132;18.026;2023-04-03T08:13:24;102517.42;;;3.88;51.29
76728;BME280;65652;53.132;18.026;2023-04-03T08:15:51;102519.22;;;3.86;50.27
76728;BME280;65652;53.132;18.026;2023-04-03T08:18:18;102517.33;;;3.85;51.01
76728;BME280;65652;53.132;18.026;2023-04-03T08:20:47;102520.35;;;3.83;50.72
76728;BME280;65652;53.132;18.026;2023-04-03T08:23:13;102520.58;;;3.82;50.65
76728;BME280;65652;53.132;18.026;2023-04-03T08:25:42;102523.56;;;4.04;50.77
76728;BME280;65652;53.132;18.026;2023-04-03T08:28:09;102522.29;;;4.06;50.09
76728;BME280;65652;53.132;18.026;2023-04-03T08:30:39;102520.04;;;4.11;49.64
76728;BME280;65652;53.132;18.026;2023-04-03T08:33:06;102519.38;;;4.26;49.66
76728;BME280;65652;53.132;18.026;2023-04-03T08:35:33;102520.12;;;4.46;49.43
76728;BME280;65652;53.132;18.026;2023-04-03T08:37:59;102518.55;;;4.56;49.20
76728;BME280;65652;53.132;18.026;2023-04-03T08:40:26;102515.11;;;4.65;48.84
76728;BME280;65652;53.132;18.026;2023-04-03T08:45:50;102523.35;;;4.64;48.65
76728;BME280;65652;53.132;18.026;2023-04-03T08:48:39;102526.48;;;4.65;48.48
76728;BME280;65652;53.132;18.026;2023-04-03T08:51:15;102522.51;;;4.63;47.77
76728;BME280;65652;53.132;18.026;2023-04-03T08:54:02;102525.86;;;4.83;48.50
76728;BME280;65652;53.132;18.026;2023-04-03T08:56:33;102523.41;;;5.04;47.90
76728;BME280;65652;53.132;18.026;2023-04-03T08:59:01;102518.76;;;5.11;46.38
76728;BME280;65652;53.132;18.026;2023-04-03T09:01:38;102519.85;;;5.25;47.07
76728;BME280;65652;53.132;18.026;2023-04-03T09:04:14;102520.50;;;5.49;45.80
76728;BME280;65652;53.132;18.026;2023-04-03T09:06:44;102520.16;;;5.59;45.28
76728;BME280;65652;53.132;18.026;2023-04-03T09:09:31;102522.98;;;5.48;45.85
76728;BME280;65652;53.132;18.026;2023-04-03T09:14:41;102528.45;;;5.24;45.42
76728;BME280;65652;53.132;18.026;2023-04-03T09:20:46;102530.09;;;5.18;46.71
76728;BME280;65652;53.132;18.026;2023-04-03T09:23:20;102530.62;;;5.22;47.07
76728;BME280;65652;53.132;18.026;2023-04-03T09:25:48;102529.30;;;5.53;46.25
76728;BME280;65652;53.132;18.026;2023-04-03T09:28:14;102523.14;;;5.77;45.78
76728;BME280;65652;53.132;18.026;2023-04-03T09:30:41;102523.96;;;5.74;45.47
76728;BME280;65652;53.132;18.026;2023-04-03T09:33:08;102517.84;;;5.83;45.34
76728;BME280;65652;53.132;18.026;2023-04-03T09:35:36;102522.25;;;5.83;44.29
76728;BME280;65652;53.132;18.026;2023-04-03T09:40:47;102516.38;;;6.88;43.96
76728;BME280;65652;53.132;18.026;2023-04-03T09:45:44;102502.56;;;8.34;41.48
76728;BME280;65652;53.132;18.026;2023-04-03T09:53:34;102496.38;;;9.91;40.17
76728;BME280;65652;53.132;18.026;2023-04-03T09:56:18;102495.42;;;10.51;38.92
76728;BME280;65652;53.132;18.026;2023-04-03T09:58:50;102497.63;;;10.91;37.02
76728;BME280;65652;53.132;18.026;2023-04-03T10:01:38;102494.49;;;11.02;34.82
76728;BME280;65652;53.132;18.026;2023-04-03T10:06:35;102491.30;;;11.40;35.11
76728;BME280;65652;53.132;18.026;2023-04-03T10:14:30;102489.17;;;11.40;35.14
76728;BME280;65652;53.132;18.026;2023-04-03T10:19:42;102505.35;;;10.48;34.90
76728;BME280;65652;53.132;18.026;2023-04-03T10:24:49;102489.71;;;10.79;35.34
76728;BME280;65652;53.132;18.026;2023-04-03T10:30:36;102496.81;;;10.28;35.09
76728;BME280;65652;53.132;18.026;2023-04-03T10:39:09;102494.88;;;10.55;34.49
76728;BME280;65652;53.132;18.026;2023-04-03T10:44:30;102488.20;;;11.24;34.50
76728;BME280;65652;53.132;18.026;2023-04-03T10:50:15;102479.77;;;11.86;33.35
76728;BME280;65652;53.132;18.026;2023-04-03T10:53:00;102485.66;;;11.45;32.97
76728;BME280;65652;53.132;18.026;2023-04-03T10:55:34;102491.27;;;10.91;33.28
76728;BME280;65652;53.132;18.026;2023-04-03T10:58:04;102494.04;;;10.60;34.04
76728;BME280;65652;53.132;18.026;2023-04-03T11:00:47;102487.14;;;10.27;33.19
76728;BME280;65652;53.132;18.026;2023-04-03T11:03:22;102489.05;;;10.03;34.29
76728;BME280;65652;53.132;18.026;2023-04-03T11:05:53;102483.63;;;10.24;34.62
76728;BME280;65652;53.132;18.026;2023-04-03T11:08:28;102483.66;;;10.32;35.01
76728;BME280;65652;53.132;18.026;2023-04-03T11:11:20;102483.08;;;10.12;34.11
76728;BME280;65652;53.132;18.026;2023-04-03T11:14:04;102485.12;;;9.72;34.47
76728;BME280;65652;53.132;18.026;2023-04-03T11:16:34;102493.02;;;9.24;34.77
76728;BME280;65652;53.132;18.026;2023-04-03T11:19:11;102491.73;;;9.09;34.71
76728;BME280;65652;53.132;18.026;2023-04-03T11:22:14;102481.27;;;9.49;34.76
76728;BME280;65652;53.132;18.026;2023-04-03T11:24:40;102483.71;;;9.75;33.75
76728;BME280;65652;53.132;18.026;2023-04-03T11:27:17;102480.23;;;9.71;34.10
76728;BME280;65652;53.132;18.026;2023-04-03T11:29:49;102481.05;;;9.69;33.64
76728;BME280;65652;53.132;18.026;2023-04-03T11:34:59;102477.92;;;9.87;33.76
76728;BME280;65652;53.132;18.026;2023-04-03T11:37:33;102468.85;;;10.07;34.13
76728;BME280;65652;53.132;18.026;2023-04-03T11:40:08;102458.95;;;10.65;33.75
76728;BME280;65652;53.132;18.026;2023-04-03T11:43:04;102453.87;;;11.22;32.47
76728;BME280;65652;53.132;18.026;2023-04-03T11:45:36;102446.55;;;11.20;32.76
76728;BME280;65652;53.132;18.026;2023-04-03T11:48:06;102443.16;;;11.68;32.85
76728;BME280;65652;53.132;18.026;2023-04-03T11:50:43;102440.86;;;12.12;31.39
76728;BME280;65652;53.132;18.026;2023-04-03T12:05:49;102451.73;;;10.90;33.12
76728;BME280;65652;53.132;18.026;2023-04-03T12:08:30;102447.14;;;10.70;33.50
76728;BME280;65652;53.132;18.026;2023-04-03T12:13:37;102451.88;;;10.20;34.00
76728;BME280;65652;53.132;18.026;2023-04-03T12:16:05;102454.80;;;9.93;33.79
76728;BME280;65652;53.132;18.026;2023-04-03T12:18:42;102451.67;;;9.95;33.54
76728;BME280;65652;53.132;18.026;2023-04-03T12:21:11;102458.39;;;9.77;34.03
76728;BME280;65652;53.132;18.026;2023-04-03T12:29:27;102454.77;;;8.87;34.31
76728;BME280;65652;53.132;18.026;2023-04-03T12:32:17;102447.58;;;8.84;34.21
76728;BME280;65652;53.132;18.026;2023-04-03T12:45:27;102437.83;;;9.18;35.16
76728;BME280;65652;53.132;18.026;2023-04-03T12:47:55;102440.66;;;8.91;35.62
76728;BME280;65652;53.132;18.026;2023-04-03T12:50:27;102438.13;;;8.73;36.07
76728;BME280;65652;53.132;18.026;2023-04-03T12:53:23;102432.62;;;8.63;35.84
76728;BME280;65652;53.132;18.026;2023-04-03T12:55:56;102438.90;;;8.54;35.55
76728;BME280;65652;53.132;18.026;2023-04-03T12:58:25;102439.40;;;8.65;35.50
76728;BME280;65652;53.132;18.026;2023-04-03T13:03:27;102423.22;;;10.12;34.06
76728;BME280;65652;53.132;18.026;2023-04-03T13:06:01;102421.73;;;10.87;33.34
76728;BME280;65652;53.132;18.026;2023-04-03T13:08:29;102424.67;;;10.99;32.94
76728;BME280;65652;53.132;18.026;2023-04-03T13:11:05;102427.30;;;11.42;32.80
76728;BME280;65652;53.132;18.026;2023-04-03T13:13:34;102426.37;;;12.08;32.18
76728;BME280;65652;53.132;18.026;2023-04-03T13:16:09;102424.91;;;11.88;31.57
76728;BME280;65652;53.132;18.026;2023-04-03T13:18:36;102423.11;;;11.44;31.36
76728;BME280;65652;53.132;18.026;2023-04-03T13:21:13;102425.55;;;10.94;31.23
76728;BME280;65652;53.132;18.026;2023-04-03T13:23:45;102420.68;;;10.63;32.31
76728;BME280;65652;53.132;18.026;2023-04-03T13:26:15;102419.05;;;10.81;32.54
76728;BME280;65652;53.132;18.026;2023-04-03T13:28:44;102410.95;;;10.79;32.67
76728;BME280;65652;53.132;18.026;2023-04-03T13:33:54;102411.83;;;10.40;32.98
76728;BME280;65652;53.132;18.026;2023-04-03T13:36:23;102411.50;;;10.07;33.32
76728;BME280;65652;53.132;18.026;2023-04-03T13:39:07;102417.69;;;9.73;33.22
76728;BME280;65652;53.132;18.026;2023-04-03T13:41:49;102416.54;;;9.24;33.65
76728;BME280;65652;53.132;18.026;2023-04-03T13:46:49;102417.76;;;9.17;34.73
76728;BME280;65652;53.132;18.026;2023-04-03T13:52:00;102406.96;;;10.63;35.11
76728;BME280;65652;53.132;18.026;2023-04-03T13:54:35;102408.55;;;10.94;34.79
76728;BME280;65652;53.132;18.026;2023-04-03T13:57:02;102410.05;;;11.32;33.82
76728;BME280;65652;53.132;18.026;2023-04-03T13:59:34;102414.41;;;10.99;34.96
76728;BME280;65652;53.132;18.026;2023-04-03T14:04:30;102414.14;;;10.43;33.47
76728;BME280;65652;53.132;18.026;2023-04-03T14:06:56;102414.17;;;10.03;33.73
76728;BME280;65652;53.132;18.026;2023-04-03T14:09:25;102414.69;;;9.82;33.93
76728;BME280;65652;53.132;18.026;2023-04-03T14:11:55;102410.90;;;10.26;34.33
76728;BME280;65652;53.132;18.026;2023-04-03T14:14:27;102401.79;;;10.77;33.71
76728;BME280;65652;53.132;18.026;2023-04-03T14:16:59;102393.23;;;11.13;32.75
76728;BME280;65652;53.132;18.026;2023-04-03T14:21:55;102392.95;;;11.09;32.41
76728;BME280;65652;53.132;18.026;2023-04-03T14:24:23;102393.05;;;10.62;33.31
76728;BME280;65652;53.132;18.026;2023-04-03T14:26:52;102401.27;;;10.22;34.21
76728;BME280;65652;53.132;18.026;2023-04-03T14:29:19;102406.34;;;9.83;34.96
76728;BME280;65652;53.132;18.026;2023-04-03T14:31:47;102410.45;;;9.41;35.78
76728;BME280;65652;53.132;18.026;2023-04-03T14:34:14;102407.69;;;9.02;36.34
76728;BME280;65652;53.132;18.026;2023-04-03T14:36:42;102413.53;;;8.58;36.58
76728;BME280;65652;53.132;18.026;2023-04-03T14:39:17;102420.29;;;8.15;36.74
76728;BME280;65652;53.132;18.026;2023-04-03T14:41:44;102415.59;;;7.78;36.81
76728;BME280;65652;53.132;18.026;2023-04-03T14:44:11;102414.90;;;7.52;37.30